Wetterdaten: Woche 12.01.15 - 18.01.15 (KW3)
Datum Zeit Temp. Aussen +5cm Feuchte Auss Luftdruck Regen Sonnenschein Regendauer Solar Windben
12.01.2015 00:00 6,5 C 4,9 C 86 % 1020,8 hPa 0,0 l/m 0,00 h 0,00 h 0 W/m 32,5 km/h (5 Bft)
12.01.2015 01:00 6,6 C 5,0 C 87 % 1020,1 hPa 0,0 l/m 0,00 h 0,00 h 0 W/m 34,1 km/h (5 Bft)
12.01.2015 02:00 6,7 C 5,4 C 87 % 1019,7 hPa 0,0 l/m 0,00 h 0,03 h 0 W/m 33,2 km/h (5 Bft)
12.01.2015 03:00 6,8 C 5,4 C 88 % 1019,5 hPa 0,0 l/m 0,00 h 0,00 h 0 W/m 31,9 km/h (5 Bft)
12.01.2015 04:00 6,9 C 5,6 C 88 % 1019,0 hPa 0,0 l/m 0,00 h 0,00 h 0 W/m 34,3 km/h (5 Bft)
12.01.2015 05:00 6,7 C 5,3 C 89 % 1018,5 hPa 0,0 l/m 0,00 h 0,07 h 0 W/m 34,7 km/h (5 Bft)
12.01.2015 06:00 6,6 C 5,3 C 89 % 1017,8 hPa 0,0 l/m 0,00 h 0,17 h 0 W/m 35,5 km/h (5 Bft)
12.01.2015 07:00 6,8 C 5,5 C 86 % 1017,2 hPa 0,0 l/m 0,00 h 0,03 h 0 W/m 35,2 km/h (5 Bft)
12.01.2015 08:00 6,9 C 5,6 C 84 % 1017,1 hPa 0,0 l/m 0,00 h 0,00 h 8 W/m 44,4 km/h (6 Bft)
12.01.2015 09:00 7,2 C 5,9 C 82 % 1016,8 hPa 0,0 l/m 0,00 h 0,00 h 22 W/m 42,7 km/h (6 Bft)
12.01.2015 10:00 7,7 C 6,5 C 80 % 1016,5 hPa 0,0 l/m 0,00 h 0,00 h 29 W/m 43,1 km/h (6 Bft)
12.01.2015 11:00 8,1 C 6,7 C 79 % 1015,9 hPa 0,0 l/m 0,00 h 0,00 h 50 W/m 40,2 km/h (6 Bft)
12.01.2015 12:00 8,3 C 7,1 C 79 % 1015,2 hPa 0,0 l/m 0,00 h 0,00 h 34 W/m 39,5 km/h (6 Bft)
12.01.2015 13:00 8,4 C 7,2 C 80 % 1014,6 hPa 0,0 l/m 0,00 h 0,00 h 37 W/m 42,5 km/h (6 Bft)
12.01.2015 14:00 8,5 C 7,2 C 81 % 1013,9 hPa 0,0 l/m 0,00 h 0,00 h 37 W/m 39,4 km/h (6 Bft)
12.01.2015 15:00 8,8 C 7,2 C 81 % 1013,6 hPa 0,0 l/m 0,00 h 0,00 h 24 W/m 38,8 km/h (5 Bft)
12.01.2015 16:00 8,7 C 7,2 C 82 % 1013,7 hPa 0,0 l/m 0,00 h 0,00 h 10 W/m 38,5 km/h (5 Bft)
12.01.2015 17:00 8,7 C 7,2 C 82 % 1013,6 hPa 0,0 l/m 0,00 h 0,00 h 0 W/m 33,0 km/h (5 Bft)
12.01.2015 18:00 8,4 C 6,9 C 85 % 1013,5 hPa 0,0 l/m 0,00 h 0,00 h 0 W/m 34,3 km/h (5 Bft)
12.01.2015 19:00 8,3 C 7,0 C 87 % 1013,1 hPa 0,0 l/m 0,00 h 0,00 h 0 W/m 35,6 km/h (5 Bft)
12.01.2015 20:00 8,9 C 7,8 C 85 % 1012,9 hPa 0,0 l/m 0,00 h 0,00 h 0 W/m 38,7 km/h (5 Bft)
12.01.2015 21:00 9,1 C 7,7 C 86 % 1012,4 hPa 0,0 l/m 0,00 h 0,00 h 0 W/m 41,8 km/h (6 Bft)
12.01.2015 22:00 9,4 C 7,9 C 86 % 1012,1 hPa 0,0 l/m 0,00 h 0,00 h 0 W/m 38,7 km/h (5 Bft)
12.01.2015 23:00 9,5 C 7,9 C 84 % 1011,5 hPa 0,0 l/m 0,00 h 0,00 h 0 W/m 39,6 km/h (6 Bft)
13.01.2015 00:00 9,6 C 8,3 C 83 % 1011,1 hPa 0,0 l/m 0,00 h 0,00 h 0 W/m 36,7 km/h (5 Bft)
13.01.2015 01:00 9,5 C 8,2 C 83 % 1010,7 hPa 0,0 l/m 0,00 h 0,03 h 0 W/m 34,2 km/h (5 Bft)
13.01.2015 02:00 9,4 C 7,5 C 84 % 1010,2 hPa 0,0 l/m 0,00 h 0,13 h 0 W/m 36,6 km/h (5 Bft)
13.01.2015 03:00 9,5 C 7,8 C 83 % 1009,3 hPa 0,0 l/m 0,00 h 0,00 h 0 W/m 38,5 km/h (5 Bft)
13.01.2015 04:00 10,0 C 8,7 C 81 % 1008,7 hPa 0,0 l/m 0,00 h 0,00 h 0 W/m 37,4 km/h (5 Bft)
13.01.2015 05:00 10,4 C 8,9 C 79 % 1008,2 hPa 0,0 l/m 0,00 h 0,00 h 0 W/m 36,4 km/h (5 Bft)
13.01.2015 06:00 10,2 C 8,7 C 79 % 1007,7 hPa 0,0 l/m 0,00 h 0,00 h 0 W/m 31,5 km/h (5 Bft)
13.01.2015 07:00 9,9 C 8,3 C 79 % 1007,2 hPa 0,0 l/m 0,00 h 0,00 h 0 W/m 33,0 km/h (5 Bft)
13.01.2015 08:00 10,0 C 8,3 C 80 % 1006,7 hPa 0,0 l/m 0,00 h 0,00 h 7 W/m 35,6 km/h (5 Bft)
13.01.2015 09:00 10,2 C 8,9 C 81 % 1006,1 hPa 0,0 l/m 0,03 h 0,00 h 30 W/m 43,6 km/h (6 Bft)
13.01.2015 10:00 10,8 C 9,5 C 75 % 1005,5 hPa 0,0 l/m 0,23 h 0,00 h 105 W/m 34,2 km/h (5 Bft)
13.01.2015 11:00 11,5 C 10,1 C 72 % 1004,7 hPa 0,0 l/m 0,23 h 0,03 h 100 W/m 36,8 km/h (5 Bft)
13.01.2015 12:00 10,6 C 8,0 C 80 % 1003,9 hPa 0,2 l/m 0,00 h 0,67 h 61 W/m 39,1 km/h (6 Bft)
13.01.2015 13:00 10,3 C 7,8 C 83 % 1003,1 hPa 0,6 l/m 0,00 h 0,70 h 40 W/m 35,7 km/h (5 Bft)
13.01.2015 14:00 9,7 C 7,4 C 89 % 1003,0 hPa 0,2 l/m 0,00 h 0,50 h 17 W/m 34,6 km/h (5 Bft)
13.01.2015 15:00 10,2 C 8,1 C 86 % 1003,7 hPa 0,0 l/m 0,00 h 0,10 h 19 W/m 41,4 km/h (6 Bft)
13.01.2015 16:00 9,7 C 7,3 C 89 % 1004,6 hPa 0,4 l/m 0,07 h 0,77 h 14 W/m 32,1 km/h (5 Bft)
13.01.2015 17:00 8,3 C 6,4 C 92 % 1005,3 hPa 0,6 l/m 0,00 h 0,60 h 0 W/m 20,2 km/h (4 Bft)
13.01.2015 18:00 7,6 C 5,7 C 94 % 1005,6 hPa 0,0 l/m 0,00 h 0,20 h 0 W/m 22,7 km/h (4 Bft)
13.01.2015 19:00 7,6 C 5,6 C 93 % 1005,9 hPa 0,0 l/m 0,00 h 0,00 h 0 W/m 28,8 km/h (5 Bft)
13.01.2015 20:00 7,7 C 5,5 C 90 % 1006,2 hPa 0,0 l/m 0,00 h 0,00 h 0 W/m 30,3 km/h (5 Bft)
13.01.2015 21:00 7,5 C 5,1 C 88 % 1006,3 hPa 0,0 l/m 0,00 h 0,00 h 0 W/m 25,8 km/h (4 Bft)
13.01.2015 22:00 7,5 C 5,2 C 86 % 1006,4 hPa 0,0 l/m 0,00 h 0,00 h 0 W/m 25,5 km/h (4 Bft)
13.01.2015 23:00 7,6 C 5,6 C 83 % 1006,3 hPa 0,0 l/m 0,00 h 0,00 h 0 W/m 21,1 km/h (4 Bft)
14.01.2015 00:00 7,1 C 5,2 C 86 % 1005,5 hPa 0,0 l/m 0,00 h 0,00 h 0 W/m 21,6 km/h (4 Bft)
14.01.2015 01:00 7,4 C 5,7 C 85 % 1005,0 hPa 0,0 l/m 0,00 h 0,00 h 0 W/m 29,8 km/h (5 Bft)
14.01.2015 02:00 6,9 C 5,2 C 86 % 1004,4 hPa 0,6 l/m 0,00 h 0,10 h 0 W/m 22,7 km/h (4 Bft)
14.01.2015 03:00 4,7 C 2,8 C 90 % 1006,1 hPa 3,0 l/m 0,00 h 0,47 h 0 W/m 32,4 km/h (5 Bft)
14.01.2015 04:00 3,7 C 2,2 C 93 % 1006,5 hPa 0,0 l/m 0,00 h 0,00 h 0 W/m 25,0 km/h (4 Bft)
14.01.2015 05:00 3,6 C 2,2 C 93 % 1007,5 hPa 0,0 l/m 0,00 h 0,00 h 0 W/m 31,7 km/h (5 Bft)
14.01.2015 06:00 4,0 C 2,6 C 90 % 1008,0 hPa 0,0 l/m 0,00 h 0,00 h 0 W/m 37,1 km/h (5 Bft)
14.01.2015 07:00 3,9 C 2,2 C 89 % 1007,8 hPa 0,0 l/m 0,00 h 0,00 h 0 W/m 29,9 km/h (5 Bft)
14.01.2015 08:00 4,0 C 2,5 C 88 % 1007,7 hPa 0,0 l/m 0,07 h 0,00 h 10 W/m 30,8 km/h (5 Bft)
14.01.2015 09:00 4,3 C 3,1 C 86 % 1007,9 hPa 0,0 l/m 0,17 h 0,00 h 47 W/m 28,8 km/h (4 Bft)
14.01.2015 10:00 5,0 C 3,8 C 84 % 1007,9 hPa 0,2 l/m 0,40 h 0,10 h 86 W/m 33,5 km/h (5 Bft)
14.01.2015 11:00 4,8 C 3,1 C 89 % 1007,5 hPa 0,2 l/m 0,00 h 0,20 h 64 W/m 37,1 km/h (5 Bft)
14.01.2015 12:00 4,4 C 2,4 C 89 % 1007,2 hPa 1,0 l/m 0,00 h 0,70 h 24 W/m 44,9 km/h (6 Bft)
14.01.2015 13:00 3,3 C 2,3 C 93 % 1007,1 hPa 0,0 l/m 0,10 h 0,00 h 83 W/m 24,1 km/h (4 Bft)
14.01.2015 14:00 3,9 C 2,9 C 93 % 1007,9 hPa 0,0 l/m 0,30 h 0,00 h 109 W/m 29,8 km/h (5 Bft)
14.01.2015 15:00 4,3 C 3,0 C 90 % 1009,4 hPa 0,0 l/m 0,40 h 0,00 h 73 W/m 32,2 km/h (5 Bft)
14.01.2015 16:00 4,4 C 2,8 C 88 % 1010,9 hPa 0,0 l/m 0,07 h 0,00 h 13 W/m 25,2 km/h (4 Bft)
14.01.2015 17:00 4,1 C 2,4 C 87 % 1012,0 hPa 0,0 l/m 0,00 h 0,00 h 0 W/m 26,2 km/h (4 Bft)
14.01.2015 18:00 3,6 C 1,8 C 87 % 1012,9 hPa 0,0 l/m 0,00 h 0,00 h 0 W/m 20,0 km/h (4 Bft)
14.01.2015 19:00 3,2 C 1,7 C 89 % 1013,2 hPa 0,0 l/m 0,00 h 0,00 h 0 W/m 19,8 km/h (3 Bft)
14.01.2015 20:00 3,0 C 1,7 C 90 % 1013,3 hPa 0,0 l/m 0,00 h 0,00 h 0 W/m 18,0 km/h (3 Bft)
14.01.2015 21:00 3,3 C 2,1 C 89 % 1013,1 hPa 0,0 l/m 0,00 h 0,00 h 0 W/m 20,1 km/h (4 Bft)
14.01.2015 22:00 3,6 C 2,1 C 88 % 1012,5 hPa 0,0 l/m 0,00 h 0,00 h 0 W/m 20,0 km/h (4 Bft)
14.01.2015 23:00 3,9 C 2,6 C 87 % 1011,3 hPa 0,0 l/m 0,00 h 0,00 h 0 W/m 24,0 km/h (4 Bft)
15.01.2015 00:00 4,1 C 2,7 C 85 % 1010,2 hPa 0,0 l/m 0,00 h 0,00 h 0 W/m 22,2 km/h (4 Bft)
15.01.2015 01:00 4,2 C 3,0 C 87 % 1008,2 hPa 0,0 l/m 0,00 h 0,00 h 0 W/m 25,1 km/h (4 Bft)
15.01.2015 02:00 5,1 C 3,8 C 89 % 1006,7 hPa 0,0 l/m 0,00 h 0,00 h 0 W/m 24,2 km/h (4 Bft)
15.01.2015 03:00 6,5 C 4,7 C 88 % 1005,0 hPa 0,2 l/m 0,00 h 0,13 h 0 W/m 28,5 km/h (4 Bft)
15.01.2015 04:00 6,5 C 4,4 C 91 % 1003,5 hPa 0,2 l/m 0,00 h 0,17 h 0 W/m 30,6 km/h (5 Bft)
15.01.2015 05:00 7,1 C 5,0 C 92 % 1002,0 hPa 0,4 l/m 0,00 h 0,50 h 0 W/m 32,0 km/h (5 Bft)
15.01.2015 06:00 7,7 C 5,6 C 90 % 1000,9 hPa 0,0 l/m 0,00 h 0,00 h 0 W/m 33,2 km/h (5 Bft)
15.01.2015 07:00 8,7 C 6,2 C 87 % 1000,2 hPa 0,2 l/m 0,00 h 0,47 h 0 W/m 37,0 km/h (5 Bft)
15.01.2015 08:00 9,2 C 6,9 C 85 % 999,7 hPa 0,0 l/m 0,00 h 0,47 h 6 W/m 37,4 km/h (5 Bft)
15.01.2015 09:00 9,6 C 7,5 C 82 % 999,4 hPa 0,0 l/m 0,00 h 0,47 h 17 W/m 36,6 km/h (5 Bft)
15.01.2015 10:00 9,9 C 8,2 C 81 % 998,9 hPa 0,0 l/m 0,00 h 0,07 h 55 W/m 37,1 km/h (5 Bft)
15.01.2015 11:00 10,2 C 7,8 C 80 % 998,8 hPa 0,4 l/m 0,00 h 0,93 h 59 W/m 34,0 km/h (5 Bft)
15.01.2015 12:00 9,5 C 6,9 C 86 % 998,0 hPa 0,4 l/m 0,00 h 0,97 h 47 W/m 33,4 km/h (5 Bft)
15.01.2015 13:00 10,2 C 7,7 C 82 % 997,2 hPa 0,2 l/m 0,00 h 1,00 h 45 W/m 43,7 km/h (6 Bft)
15.01.2015 14:00 10,6 C 8,8 C 79 % 996,4 hPa 0,0 l/m 0,20 h 1,00 h 87 W/m 44,7 km/h (6 Bft)
15.01.2015 15:00 11,0 C 9,3 C 75 % 996,0 hPa 0,0 l/m 0,00 h 0,70 h 32 W/m 40,7 km/h (6 Bft)
15.01.2015 16:00 10,8 C 8,9 C 77 % 996,0 hPa 0,0 l/m 0,00 h 0,10 h 13 W/m 49,1 km/h (6 Bft)
15.01.2015 17:00 10,7 C 8,9 C 78 % 996,2 hPa 0,0 l/m 0,00 h 0,13 h 0 W/m 45,2 km/h (6 Bft)
15.01.2015 18:00 10,2 C 8,4 C 81 % 996,7 hPa 0,0 l/m 0,00 h 0,50 h 0 W/m 46,3 km/h (6 Bft)
15.01.2015 19:00 9,2 C 6,9 C 88 % 997,8 hPa 0,2 l/m 0,00 h 0,50 h 0 W/m 31,2 km/h (5 Bft)
15.01.2015 20:00 8,9 C 6,8 C 86 % 998,3 hPa 0,0 l/m 0,00 h 0,10 h 0 W/m 28,5 km/h (4 Bft)
15.01.2015 21:00 7,6 C 5,1 C 88 % 999,3 hPa 1,2 l/m 0,00 h 0,93 h 0 W/m 30,1 km/h (5 Bft)
15.01.2015 22:00 6,8 C 4,4 C 88 % 1000,0 hPa 0,0 l/m 0,00 h 0,00 h 0 W/m 24,7 km/h (4 Bft)
15.01.2015 23:00 7,0 C 4,5 C 86 % 1000,8 hPa 0,0 l/m 0,00 h 0,00 h 0 W/m 24,8 km/h (4 Bft)
16.01.2015 00:00 6,9 C 4,4 C 86 % 1001,3 hPa 0,0 l/m 0,00 h 0,00 h 0 W/m 26,6 km/h (4 Bft)
16.01.2015 01:00 6,5 C 4,4 C 85 % 1001,8 hPa 0,0 l/m 0,00 h 0,00 h 0 W/m 25,1 km/h (4 Bft)
16.01.2015 02:00 6,4 C 4,7 C 85 % 1002,6 hPa 0,0 l/m 0,00 h 0,00 h 0 W/m 24,9 km/h (4 Bft)
16.01.2015 03:00 6,2 C 4,4 C 82 % 1003,2 hPa 0,0 l/m 0,00 h 0,00 h 0 W/m 24,8 km/h (4 Bft)
16.01.2015 04:00 5,7 C 3,9 C 82 % 1003,7 hPa 0,0 l/m 0,00 h 0,00 h 0 W/m 20,4 km/h (4 Bft)
16.01.2015 05:00 5,4 C 3,6 C 82 % 1004,1 hPa 0,0 l/m 0,00 h 0,00 h 0 W/m 17,3 km/h (3 Bft)
16.01.2015 06:00 5,2 C 3,6 C 84 % 1004,2 hPa 0,0 l/m 0,00 h 0,00 h 0 W/m 15,1 km/h (3 Bft)
16.01.2015 07:00 5,2 C 3,5 C 86 % 1004,7 hPa 0,0 l/m 0,00 h 0,00 h 0 W/m 14,4 km/h (3 Bft)
16.01.2015 08:00 5,1 C 3,4 C 88 % 1005,3 hPa 0,0 l/m 0,00 h 0,00 h 6 W/m 14,8 km/h (3 Bft)
16.01.2015 09:00 5,0 C 3,4 C 88 % 1005,6 hPa 0,0 l/m 0,00 h 0,00 h 31 W/m 11,5 km/h (2 Bft)
16.01.2015 10:00 5,4 C 4,8 C 88 % 1006,0 hPa 0,0 l/m 0,37 h 0,00 h 100 W/m 13,3 km/h (3 Bft)
16.01.2015 11:00 6,7 C 6,0 C 84 % 1006,1 hPa 0,0 l/m 0,63 h 0,00 h 152 W/m 14,9 km/h (3 Bft)
16.01.2015 12:00 7,6 C 6,8 C 82 % 1006,1 hPa 0,0 l/m 0,80 h 0,00 h 168 W/m 11,1 km/h (2 Bft)
16.01.2015 13:00 8,2 C 7,2 C 80 % 1005,6 hPa 0,0 l/m 0,80 h 0,00 h 194 W/m 13,1 km/h (3 Bft)
16.01.2015 14:00 8,8 C 6,9 C 75 % 1005,4 hPa 0,0 l/m 0,77 h 0,00 h 151 W/m 14,2 km/h (3 Bft)
16.01.2015 15:00 8,1 C 6,4 C 77 % 1005,6 hPa 0,0 l/m 0,30 h 0,00 h 75 W/m 12,9 km/h (3 Bft)
16.01.2015 16:00 7,5 C 5,7 C 79 % 1005,6 hPa 0,0 l/m 0,70 h 0,00 h 30 W/m 8,4 km/h (2 Bft)
16.01.2015 17:00 6,9 C 4,8 C 80 % 1006,0 hPa 0,0 l/m 0,00 h 0,00 h 0 W/m 9,7 km/h (2 Bft)
16.01.2015 18:00 6,0 C 3,5 C 81 % 1006,0 hPa 0,0 l/m 0,00 h 0,00 h 0 W/m 7,7 km/h (2 Bft)
16.01.2015 19:00 5,1 C 2,4 C 83 % 1006,5 hPa 0,0 l/m 0,00 h 0,00 h 0 W/m 6,9 km/h (2 Bft)
16.01.2015 20:00 4,9 C 3,2 C 86 % 1006,6 hPa 0,0 l/m 0,00 h 0,00 h 0 W/m 10,7 km/h (2 Bft)
16.01.2015 21:00 4,6 C 2,8 C 87 % 1007,0 hPa 0,0 l/m 0,00 h 0,00 h 0 W/m 9,7 km/h (2 Bft)
16.01.2015 22:00 4,2 C 2,8 C 88 % 1007,3 hPa 0,0 l/m 0,00 h 0,00 h 0 W/m 11,8 km/h (2 Bft)
16.01.2015 23:00 4,2 C 2,9 C 91 % 1008,1 hPa 0,0 l/m 0,00 h 0,17 h 0 W/m 11,3 km/h (2 Bft)
17.01.2015 00:00 4,3 C 2,9 C 92 % 1008,9 hPa 0,0 l/m 0,00 h 0,17 h 0 W/m 9,8 km/h (2 Bft)
17.01.2015 01:00 4,0 C 2,6 C 92 % 1009,4 hPa 0,0 l/m 0,00 h 0,00 h 0 W/m 9,0 km/h (2 Bft)
17.01.2015 02:00 3,7 C 2,1 C 92 % 1010,0 hPa 0,0 l/m 0,00 h 0,00 h 0 W/m 10,6 km/h (2 Bft)
17.01.2015 03:00 3,6 C 2,2 C 94 % 1010,6 hPa 0,0 l/m 0,00 h 0,00 h 0 W/m 13,5 km/h (3 Bft)
17.01.2015 04:00 3,1 C 1,3 C 94 % 1011,3 hPa 0,0 l/m 0,00 h 0,00 h 0 W/m 10,9 km/h (2 Bft)
17.01.2015 05:00 2,2 C 0,6 C 94 % 1011,8 hPa 0,0 l/m 0,00 h 0,00 h 0 W/m 8,9 km/h (2 Bft)
17.01.2015 06:00 1,5 C -0,2 C 94 % 1012,4 hPa 0,0 l/m 0,00 h 0,00 h 0 W/m 8,0 km/h (2 Bft)
17.01.2015 07:00 1,3 C 0,5 C 95 % 1012,9 hPa 0,0 l/m 0,00 h 0,00 h 0 W/m 12,3 km/h (3 Bft)
17.01.2015 08:00 1,0 C 0,0 C 96 % 1013,7 hPa 0,0 l/m 0,00 h 0,00 h 6 W/m 11,5 km/h (2 Bft)
17.01.2015 09:00 0,9 C 0,5 C 96 % 1014,5 hPa 0,0 l/m 0,10 h 0,00 h 43 W/m 8,1 km/h (2 Bft)
17.01.2015 10:00 1,3 C 0,8 C 97 % 1015,0 hPa 0,0 l/m 0,97 h 0,00 h 153 W/m 6,7 km/h (2 Bft)
17.01.2015 11:00 2,8 C 2,1 C 97 % 1015,1 hPa 0,0 l/m 1,00 h 0,00 h 243 W/m 13,2 km/h (3 Bft)
17.01.2015 12:00 4,6 C 3,3 C 92 % 1015,4 hPa 0,0 l/m 0,97 h 0,00 h 279 W/m 14,0 km/h (3 Bft)
17.01.2015 13:00 6,0 C 4,3 C 79 % 1015,5 hPa 0,0 l/m 1,00 h 0,00 h 259 W/m 14,2 km/h (3 Bft)
17.01.2015 14:00 6,2 C 4,3 C 71 % 1015,2 hPa 0,0 l/m 1,00 h 0,00 h 185 W/m 14,2 km/h (3 Bft)
17.01.2015 15:00 5,4 C 3,4 C 71 % 1015,2 hPa 0,0 l/m 0,37 h 0,00 h 80 W/m 16,4 km/h (3 Bft)
17.01.2015 16:00 4,4 C 2,5 C 76 % 1015,2 hPa 0,0 l/m 0,23 h 0,00 h 22 W/m 15,4 km/h (3 Bft)
17.01.2015 17:00 3,3 C 1,3 C 80 % 1015,3 hPa 0,0 l/m 0,00 h 0,00 h 5 W/m 12,7 km/h (3 Bft)
17.01.2015 18:00 2,3 C 0,5 C 84 % 1015,3 hPa 0,0 l/m 0,00 h 0,00 h 0 W/m 11,6 km/h (2 Bft)
17.01.2015 19:00 1,6 C -0,9 C 86 % 1015,4 hPa 0,0 l/m 0,00 h 0,00 h 0 W/m 9,0 km/h (2 Bft)
17.01.2015 20:00 0,9 C -1,0 C 88 % 1015,6 hPa 0,0 l/m 0,00 h 0,00 h 0 W/m 12,5 km/h (3 Bft)
17.01.2015 21:00 1,5 C 0,6 C 88 % 1015,7 hPa 0,0 l/m 0,00 h 0,00 h 0 W/m 16,0 km/h (3 Bft)
17.01.2015 22:00 1,8 C 0,7 C 85 % 1015,5 hPa 0,0 l/m 0,00 h 0,00 h 0 W/m 17,5 km/h (3 Bft)
17.01.2015 23:00 1,7 C 0,3 C 84 % 1015,5 hPa 0,0 l/m 0,00 h 0,00 h 0 W/m 17,1 km/h (3 Bft)
18.01.2015 00:00 1,8 C 0,7 C 84 % 1015,3 hPa 0,0 l/m 0,00 h 0,00 h 0 W/m 14,0 km/h (3 Bft)
18.01.2015 01:00 1,8 C 0,8 C 84 % 1015,0 hPa 0,0 l/m 0,00 h 0,00 h 0 W/m 14,0 km/h (3 Bft)
18.01.2015 02:00 1,8 C 0,6 C 84 % 1014,7 hPa 0,0 l/m 0,00 h 0,00 h 0 W/m 12,6 km/h (3 Bft)
18.01.2015 03:00 1,6 C 0,6 C 84 % 1014,4 hPa 0,0 l/m 0,00 h 0,00 h 0 W/m 11,9 km/h (2 Bft)
18.01.2015 04:00 1,5 C 0,8 C 85 % 1014,1 hPa 0,0 l/m 0,00 h 0,00 h 0 W/m 11,7 km/h (2 Bft)
18.01.2015 05:00 1,9 C 1,1 C 83 % 1013,6 hPa 0,0 l/m 0,00 h 0,00 h 0 W/m 15,5 km/h (3 Bft)
18.01.2015 06:00 2,1 C 0,9 C 83 % 1013,5 hPa 0,0 l/m 0,00 h 0,00 h 0 W/m 11,2 km/h (2 Bft)
18.01.2015 07:00 1,8 C 0,8 C 85 % 1013,4 hPa 0,0 l/m 0,00 h 0,00 h 0 W/m 15,4 km/h (3 Bft)
18.01.2015 08:00 2,0 C 1,1 C 84 % 1013,3 hPa 0,0 l/m 0,00 h 0,00 h 8 W/m 17,1 km/h (3 Bft)
18.01.2015 09:00 2,2 C 1,4 C 84 % 1013,3 hPa 0,0 l/m 0,00 h 0,00 h 30 W/m 19,8 km/h (3 Bft)
18.01.2015 10:00 2,8 C 2,4 C 84 % 1013,4 hPa 0,0 l/m 0,00 h 0,00 h 70 W/m 17,1 km/h (3 Bft)
18.01.2015 11:00 3,5 C 3,3 C 83 % 1013,3 hPa 0,0 l/m 0,00 h 0,00 h 104 W/m 16,4 km/h (3 Bft)
18.01.2015 12:00 4,6 C 4,2 C 80 % 1013,0 hPa 0,0 l/m 0,20 h 0,00 h 141 W/m 16,7 km/h (3 Bft)
18.01.2015 13:00 5,0 C 4,3 C 78 % 1012,4 hPa 0,0 l/m 0,37 h 0,00 h 149 W/m 17,5 km/h (3 Bft)
18.01.2015 14:00 5,3 C 4,2 C 76 % 1012,0 hPa 0,0 l/m 0,67 h 0,00 h 132 W/m 18,9 km/h (3 Bft)
18.01.2015 15:00 5,0 C 3,6 C 75 % 1011,8 hPa 0,0 l/m 0,47 h 0,00 h 84 W/m 15,7 km/h (3 Bft)
18.01.2015 16:00 4,4 C 2,3 C 76 % 1011,8 hPa 0,0 l/m 0,03 h 0,00 h 21 W/m 12,4 km/h (3 Bft)
18.01.2015 17:00 3,5 C 1,4 C 79 % 1011,7 hPa 0,0 l/m 0,00 h 0,00 h 4 W/m 10,6 km/h (2 Bft)
18.01.2015 18:00 3,0 C 1,2 C 80 % 1011,9 hPa 0,0 l/m 0,00 h 0,00 h 0 W/m 14,2 km/h (3 Bft)
18.01.2015 19:00 2,5 C 0,6 C 81 % 1012,2 hPa 0,0 l/m 0,00 h 0,00 h 0 W/m 13,2 km/h (3 Bft)
18.01.2015 20:00 1,8 C -0,2 C 83 % 1012,4 hPa 0,0 l/m 0,00 h 0,00 h 0 W/m 13,0 km/h (3 Bft)
18.01.2015 21:00 1,4 C 0,1 C 85 % 1012,7 hPa 0,0 l/m 0,00 h 0,00 h 0 W/m 11,3 km/h (2 Bft)
18.01.2015 22:00 0,9 C -0,9 C 86 % 1012,8 hPa 0,0 l/m 0,00 h 0,00 h 0 W/m 8,6 km/h (2 Bft)
18.01.2015 23:00 0,3 C -1,1 C 88 % 1012,9 hPa 0,0 l/m 0,00 h 0,00 h 0 W/m 10,5 km/h (2 Bft)
Min-Datum _ 18.01.15 17.01.15 17.01.15 15.01.15 - - - - 17.01.15
_ Min-Zeit 23:58 20:04 15:00 15:18 - - - - 10:16
Minimum _ 0,0 C -1,7 C 68 % 995,8 hPa - - - - 2,1 km/h (1 Bft)
Max-Datum _ 13.01.15 13.01.15 17.01.15 12.01.15 14.01.15 13.01.15 12.01.15 16.01.15 15.01.15
_ Max-Zeit 11:40 11:32 09:56 00:06 03:00 09:15 02:50 13:58 14:32
Maximum _ 11,7 C 10,6 C 97 % 1021,1 hPa 3,0 l/m 0,03 h 0,03 h 312 W/m 77,8 km/h
SW (9 Bft)
Durchschnitt _ 5,9 C 4,4 C 85 % 1009,1 hPa #10,4 l/m #14:00 h #15:06 h 68 W/m 24,8 km/h (4 Bft)
© 2015 W. Hausmann